Airfield :







YOU CAN JOIN US ON...

 
LOGIN :

Register | Disclaimer

   EN    FR    IT 

 









Legend :    VFR   Marginal VFR   IFR   Intensive IFR   Very Intensive IFR
Visi :
Ceiling :
>= 8 km
>= 3000ft
5 to 8 km
1000 to 3000 ft
1500m to 5 km
500 to 1000 ft
800 to 1500m
200 to 500 ft
< 800m
< 200 ft
Symbols :   Thunderstorms  Fog  Heavy snow  Heavy precipitations  Wind > 20 kt







- Airport Elevation : 71 ft
- IATA code : YBC


CYBC - Baie Comeau

CURRENT METAR :
  • 172100Z AUTO 14005KT 9SM CLR 10/05 A3022 RMK SLP235

EXPIRED METARs :
  • 172000Z AUTO 14007KT 9SM CLR 11/04 A3021 RMK SLP234
  • 171900Z AUTO 15008KT 9SM CLR 11/04 A3022 RMK SLP237
  • 171800Z AUTO 16009KT 9SM FEW055 12/04 A3022 RMK SLP236

TAF TAF CYBC
Valid from the 17 at 20:00 until the 18 at 08:00 UTC


171938Z 1720/1808 15008KT P6SM SKC
BECMG 1722/1724 VRB03KT RMK FCST BASED ON AUTO OBS. NXT FCST BY 180200Z
No reported NOTAMs for that airfield.



MET'MAP, your aeronautical weather chart ! - Copyright ORBIFLY December 2007 - Disclaimer

ORBIFLY MET'MAP TEAM :

Programming & Development : Alexandra Zaïnal
Concept & Development : Baudouin d'Aumeries
Co-Development & Prog : Marc-Olivier Méhu
Technical & hardware support : Manuel Goepfert

Contact : metmap@orbifly.com




SOURCES & CREDITS :

   NOAA